createdAt,value
2019-04-03T00:01:26.418Z,11.73
2019-04-03T00:03:56.123Z,13.35
2019-04-03T00:06:26.011Z,12.37
2019-04-03T00:08:55.741Z,12.45
2019-04-03T00:11:25.904Z,12.10
2019-04-03T00:13:55.531Z,12.50
2019-04-03T00:16:25.450Z,13.87
2019-04-03T00:18:55.216Z,12.60
2019-04-03T00:21:24.858Z,13.00
2019-04-03T00:23:54.609Z,13.03
2019-04-03T00:26:24.308Z,11.95
2019-04-03T00:28:54.048Z,12.37
2019-04-03T00:31:23.851Z,12.20
2019-04-03T00:33:54.795Z,12.87
2019-04-03T00:36:24.445Z,13.53
2019-04-03T00:38:54.670Z,13.55
2019-04-03T00:41:25.110Z,13.65
2019-04-03T00:43:55.114Z,13.60
2019-04-03T00:46:25.166Z,13.03
2019-04-03T00:48:55.862Z,13.23
2019-04-03T00:51:27.420Z,14.13
2019-04-03T00:53:58.176Z,13.95
2019-04-03T00:56:28.924Z,13.10
2019-04-03T00:58:58.621Z,14.37
2019-04-03T01:01:28.276Z,13.90
2019-04-03T01:03:58.839Z,13.40
2019-04-03T01:06:29.023Z,13.03
2019-04-03T01:08:59.435Z,13.13
2019-04-03T01:11:32.432Z,13.97
2019-04-03T01:14:02.302Z,13.90
2019-04-03T01:16:34.174Z,14.38
2019-04-03T01:19:05.731Z,14.00
2019-04-03T01:21:37.266Z,15.03
2019-04-03T01:24:08.376Z,14.45
2019-04-03T01:26:40.188Z,15.35
2019-04-03T01:29:10.603Z,15.40
2019-04-03T01:31:41.023Z,15.53
2019-04-03T01:34:11.662Z,14.90
2019-04-03T01:36:41.334Z,15.20
2019-04-03T01:39:11.016Z,14.47
2019-04-03T01:41:40.719Z,15.87
2019-04-03T01:44:10.361Z,15.50
2019-04-03T01:46:40.002Z,14.93
2019-04-03T01:49:09.687Z,15.73
2019-04-03T01:51:39.438Z,16.00
2019-04-03T01:54:09.095Z,16.90
2019-04-03T01:56:38.732Z,15.23
2019-04-03T01:59:08.620Z,14.87
2019-04-03T02:01:39.027Z,15.90
2019-04-03T02:04:09.194Z,15.60
2019-04-03T02:06:38.835Z,16.10
2019-04-03T02:09:10.327Z,17.00
2019-04-03T02:11:39.982Z,16.77
2019-04-03T02:14:09.716Z,15.47
2019-04-03T02:16:39.454Z,16.27
2019-04-03T02:19:10.132Z,17.53
2019-04-03T02:21:39.873Z,15.87
2019-04-03T02:24:09.731Z,17.37
2019-04-03T02:26:39.399Z,16.60
2019-04-03T02:29:09.330Z,16.00
2019-04-03T02:31:39.076Z,17.50
2019-04-03T02:34:08.792Z,17.23
2019-04-03T02:36:38.509Z,17.40
2019-04-03T02:39:08.306Z,17.13
2019-04-03T02:41:38.248Z,17.20
2019-04-03T02:44:09.032Z,17.37
2019-04-03T02:46:39.864Z,17.60
2019-04-03T02:49:10.883Z,16.20
2019-04-03T02:51:43.078Z,17.97
2019-04-03T02:54:27.156Z,17.90
2019-04-03T02:56:58.321Z,17.60
2019-04-03T02:59:28.021Z,18.20
2019-04-03T03:01:57.740Z,16.73
2019-04-03T03:04:27.541Z,18.17
2019-04-03T03:06:57.210Z,17.83
2019-04-03T03:09:27.389Z,18.27
2019-04-03T03:11:57.310Z,17.93
2019-04-03T03:14:27.698Z,18.13
2019-04-03T03:16:59.317Z,18.20
2019-04-03T03:19:31.920Z,18.83
2019-04-03T03:22:01.422Z,18.10
2019-04-03T03:24:32.841Z,18.47
2019-04-03T03:27:02.856Z,18.77
2019-04-03T03:29:33.005Z,18.77
2019-04-03T03:32:13.106Z,17.87
2019-04-03T03:34:50.625Z,18.27
2019-04-03T03:37:06.815Z,19.90
2019-04-03T03:39:37.595Z,18.90
2019-04-03T03:42:07.841Z,18.13
2019-04-03T03:44:38.189Z,19.07
2019-04-03T03:47:08.661Z,18.83
2019-04-03T03:49:40.008Z,18.40
2019-04-03T03:52:10.208Z,18.87
2019-04-03T03:54:40.180Z,19.17
2019-04-03T03:57:10.480Z,17.57
2019-04-03T03:59:40.816Z,19.17
2019-04-03T04:02:10.692Z,19.00
2019-04-03T04:04:41.257Z,17.90
2019-04-03T04:07:11.230Z,17.47
2019-04-03T04:09:41.438Z,18.20
2019-04-03T04:12:11.956Z,19.53
2019-04-03T04:14:41.993Z,19.30
2019-04-03T04:17:15.830Z,18.03
2019-04-03T04:19:43.858Z,17.10
2019-04-03T04:22:16.622Z,18.47
2019-04-03T04:24:45.327Z,18.50
2019-04-03T04:27:16.644Z,18.80
2019-04-03T04:29:46.727Z,18.27
2019-04-03T04:32:16.739Z,19.63
2019-04-03T04:34:49.270Z,18.87
2019-04-03T04:37:17.938Z,19.20
2019-04-03T04:39:47.821Z,17.60
2019-04-03T04:42:17.656Z,18.85
2019-04-03T04:44:47.369Z,17.07
2019-04-03T04:47:17.994Z,17.60
2019-04-03T04:49:47.948Z,17.77
2019-04-03T04:52:17.647Z,18.30
2019-04-03T04:54:47.291Z,19.83
2019-04-03T04:57:16.964Z,17.80
2019-04-03T04:59:46.702Z,17.47
2019-04-03T05:02:17.865Z,17.17
2019-04-03T05:04:47.904Z,17.77
2019-04-03T05:07:17.748Z,18.20
2019-04-03T05:09:47.499Z,17.93
2019-04-03T05:12:17.476Z,18.63
2019-04-03T05:14:48.903Z,18.07
2019-04-03T05:17:18.674Z,18.07
2019-04-03T05:19:49.520Z,16.47
2019-04-03T05:22:19.406Z,18.70
2019-04-03T05:24:49.220Z,17.77
2019-04-03T05:27:19.095Z,17.33
2019-04-03T05:29:49.075Z,18.13
2019-04-03T05:32:19.019Z,17.47
2019-04-03T05:34:49.096Z,17.37
2019-04-03T05:37:20.236Z,17.53
2019-04-03T05:39:50.879Z,18.37
2019-04-03T05:42:21.092Z,18.53
2019-04-03T05:44:50.882Z,17.97
2019-04-03T05:47:20.799Z,17.90
2019-04-03T05:49:52.607Z,18.57
2019-04-03T05:52:22.606Z,18.33
2019-04-03T05:54:52.573Z,17.90
2019-04-03T05:57:22.668Z,18.40
2019-04-03T06:00:00.632Z,18.37
2019-04-03T06:02:25.381Z,17.70
2019-04-03T06:04:55.350Z,18.03
2019-04-03T06:07:25.289Z,18.57
2019-04-03T06:09:58.063Z,19.33
2019-04-03T06:12:26.687Z,20.17
2019-04-03T06:14:56.495Z,19.80
2019-04-03T06:17:26.669Z,19.83
2019-04-03T06:19:56.447Z,20.63
2019-04-03T06:22:26.308Z,19.62
2019-04-03T06:24:57.072Z,19.75
2019-04-03T06:27:27.940Z,19.00
2019-04-03T06:29:58.016Z,19.27
2019-04-03T06:32:29.227Z,19.30
2019-04-03T06:35:02.599Z,19.87
2019-04-03T06:37:33.655Z,18.57
2019-04-03T06:40:04.306Z,18.67
2019-04-03T06:42:34.387Z,19.83
2019-04-03T06:45:04.853Z,20.47
2019-04-03T06:47:34.717Z,20.70
2019-04-03T06:50:05.145Z,19.50
2019-04-03T06:52:35.133Z,20.87
2019-04-03T06:55:05.362Z,20.37
2019-04-03T06:57:35.205Z,19.60
2019-04-03T07:00:05.689Z,19.97
2019-04-03T07:02:35.578Z,20.30
2019-04-03T07:05:05.899Z,20.05
2019-04-03T07:07:35.772Z,20.80
2019-04-03T07:10:08.795Z,19.77
2019-04-03T07:12:38.481Z,20.90
2019-04-03T07:15:08.777Z,20.40
2019-04-03T07:17:38.714Z,19.45
2019-04-03T07:20:14.500Z,20.27
2019-04-03T07:22:41.304Z,19.77
2019-04-03T07:25:11.355Z,21.00
2019-04-03T07:27:42.356Z,21.97
2019-04-03T07:30:12.884Z,20.87
2019-04-03T07:32:42.733Z,19.67
2019-04-03T07:35:12.725Z,19.47
2019-04-03T07:37:42.656Z,20.97
2019-04-03T07:40:13.491Z,21.27
2019-04-03T07:42:43.442Z,19.40
2019-04-03T07:45:13.787Z,19.12
2019-04-03T07:47:43.758Z,19.63
2019-04-03T07:50:14.096Z,19.90
2019-04-03T07:52:44.099Z,19.57
2019-04-03T07:55:14.021Z,18.97
2019-04-03T07:57:43.883Z,20.10
2019-04-03T08:00:14.538Z,19.27
2019-04-03T08:02:47.924Z,19.83
2019-04-03T08:05:16.401Z,20.25
2019-04-03T08:07:46.293Z,22.23
2019-04-03T08:10:16.448Z,18.98
2019-04-03T08:12:46.278Z,20.10
2019-04-03T08:15:16.210Z,19.57
2019-04-03T08:17:46.055Z,19.67
2019-04-03T08:20:15.931Z,20.37
2019-04-03T08:22:45.965Z,19.25
2019-04-03T08:25:15.947Z,20.67
2019-04-03T08:27:46.084Z,21.07
2019-04-03T08:30:16.287Z,21.60
2019-04-03T08:32:48.187Z,23.35
2019-04-03T08:35:21.671Z,21.93
2019-04-03T08:37:49.135Z,22.22
2019-04-03T08:40:20.417Z,22.60
2019-04-03T08:42:50.339Z,23.83
2019-04-03T08:45:21.989Z,20.92
2019-04-03T08:47:51.512Z,21.37
2019-04-03T08:50:21.320Z,21.82
2019-04-03T08:52:51.284Z,21.57
2019-04-03T08:55:21.012Z,21.77
2019-04-03T08:57:52.246Z,21.85
2019-04-03T09:00:22.627Z,21.87
2019-04-03T09:02:52.490Z,20.90
2019-04-03T09:05:22.374Z,20.52
2019-04-03T09:07:55.275Z,21.25
2019-04-03T09:10:24.601Z,20.60
2019-04-03T09:12:54.535Z,20.52
2019-04-03T09:15:25.691Z,22.25
2019-04-03T09:17:55.590Z,20.68
2019-04-03T09:20:25.494Z,21.50
2019-04-03T09:22:55.179Z,20.37
2019-04-03T09:25:24.833Z,21.25
2019-04-03T09:27:54.485Z,22.22
2019-04-03T09:30:24.996Z,22.10
2019-04-03T09:32:54.801Z,23.98
2019-04-03T09:35:25.446Z,22.70
2019-04-03T09:37:55.812Z,21.23
2019-04-03T09:40:25.785Z,22.80
2019-04-03T09:42:55.451Z,21.93
2019-04-03T09:45:26.066Z,21.57
2019-04-03T09:47:56.608Z,22.67
2019-04-03T09:50:27.255Z,23.07
2019-04-03T09:52:57.121Z,24.55
2019-04-03T09:55:27.116Z,22.77
2019-04-03T09:57:56.835Z,20.62
2019-04-03T10:00:27.185Z,23.47
2019-04-03T10:02:56.875Z,21.25
2019-04-03T10:05:26.743Z,21.75
2019-04-03T10:07:58.312Z,22.35
2019-04-03T10:10:28.204Z,21.12
2019-04-03T10:12:57.859Z,21.70
2019-04-03T10:15:30.314Z,22.02
2019-04-03T10:17:58.868Z,21.05
2019-04-03T10:20:28.626Z,22.05
2019-04-03T10:22:59.694Z,19.90
2019-04-03T10:25:29.467Z,19.85
2019-04-03T10:27:59.319Z,21.37
2019-04-03T10:30:29.583Z,20.55
2019-04-03T10:33:00.165Z,18.77
2019-04-03T10:35:30.626Z,21.87
2019-04-03T10:38:00.398Z,21.75
2019-04-03T10:40:31.015Z,21.27
2019-04-03T10:43:02.764Z,22.40
2019-04-03T10:45:32.193Z,20.62
2019-04-03T10:48:02.086Z,20.52
2019-04-03T10:50:31.732Z,18.60
2019-04-03T10:53:01.453Z,19.57
2019-04-03T10:55:31.378Z,21.60
2019-04-03T10:58:02.283Z,18.95
2019-04-03T11:00:32.706Z,21.02
2019-04-03T11:03:02.538Z,20.77
2019-04-03T11:05:32.612Z,18.40
2019-04-03T11:08:02.530Z,19.62
2019-04-03T11:10:33.223Z,18.80
2019-04-03T11:13:03.818Z,20.85
2019-04-03T11:15:33.901Z,20.60
2019-04-03T11:18:03.885Z,17.62
2019-04-03T11:20:35.816Z,18.02
2019-04-03T11:23:07.583Z,18.12
2019-04-03T11:25:36.558Z,17.52
2019-04-03T11:28:06.541Z,17.25
2019-04-03T11:30:36.806Z,16.48
2019-04-03T11:33:06.459Z,15.63
2019-04-03T11:35:36.135Z,13.32
2019-04-03T11:38:12.798Z,13.35
2019-04-03T11:40:37.136Z,14.23
2019-04-03T11:43:06.963Z,14.70
2019-04-03T11:45:36.635Z,15.25
2019-04-03T11:48:06.903Z,13.90
2019-04-03T11:50:38.877Z,14.38
2019-04-03T11:53:08.400Z,14.38
2019-04-03T11:55:38.175Z,14.68
2019-04-03T11:58:08.791Z,16.20
2019-04-03T12:00:43.644Z,17.57
2019-04-03T12:03:13.383Z,13.83
2019-04-03T12:05:43.038Z,14.80
2019-04-03T12:08:13.067Z,13.78
2019-04-03T12:10:42.906Z,12.33
2019-04-03T12:13:14.476Z,15.15
2019-04-03T12:15:44.893Z,13.62
2019-04-03T12:18:14.970Z,14.78
2019-04-03T12:20:45.592Z,12.98
2019-04-03T12:23:16.311Z,14.15
2019-04-03T12:25:45.979Z,15.50
2019-04-03T12:28:17.420Z,15.45
2019-04-03T12:30:46.999Z,18.48
2019-04-03T12:33:16.896Z,16.15
2019-04-03T12:35:46.663Z,17.85
2019-04-03T12:38:16.311Z,15.70
2019-04-03T12:40:45.947Z,16.57
2019-04-03T12:43:15.775Z,17.05
2019-04-03T12:45:45.790Z,17.32
2019-04-03T12:48:17.369Z,16.35
2019-04-03T12:50:46.943Z,17.77
2019-04-03T12:53:17.304Z,17.07
2019-04-03T12:55:47.248Z,16.80
2019-04-03T12:58:18.240Z,17.02
2019-04-03T13:00:49.147Z,17.85
2019-04-03T13:03:19.441Z,18.12
2019-04-03T13:05:49.605Z,19.10
2019-04-03T13:08:21.135Z,18.25
2019-04-03T13:10:51.214Z,17.52
2019-04-03T13:13:20.973Z,17.60
2019-04-03T13:15:51.586Z,17.95
2019-04-03T13:18:21.403Z,17.57
2019-04-03T13:20:51.043Z,17.52
2019-04-03T13:23:20.762Z,16.62
2019-04-03T13:25:51.009Z,18.50
2019-04-03T13:28:21.749Z,19.12
2019-04-03T13:30:51.405Z,19.42
2019-04-03T13:33:21.108Z,15.90
2019-04-03T13:35:50.780Z,17.10
2019-04-03T13:38:20.657Z,17.05
2019-04-03T13:40:50.419Z,19.42
2019-04-03T13:43:22.322Z,19.20
2019-04-03T13:45:52.352Z,20.25
2019-04-03T13:48:22.054Z,18.55
2019-04-03T13:50:53.991Z,20.72
2019-04-03T13:53:25.588Z,20.30
2019-04-03T13:55:55.874Z,20.45
2019-04-03T13:58:27.919Z,20.12
2019-04-03T14:01:02.106Z,22.55
2019-04-03T14:03:29.796Z,21.48
2019-04-03T14:05:59.571Z,20.02
2019-04-03T14:08:29.216Z,18.27
2019-04-03T14:10:59.027Z,19.05
2019-04-03T14:13:29.025Z,19.52
2019-04-03T14:15:58.669Z,18.52
2019-04-03T14:18:28.479Z,20.05
2019-04-03T14:20:58.153Z,20.15
2019-04-03T14:23:28.157Z,21.35
2019-04-03T14:26:05.587Z,21.65
2019-04-03T14:28:29.144Z,21.00
2019-04-03T14:30:58.794Z,21.17
2019-04-03T14:33:41.298Z,21.93
2019-04-03T14:36:00.165Z,20.52
2019-04-03T14:38:31.019Z,20.12
2019-04-03T14:41:01.195Z,19.23
2019-04-03T14:43:32.752Z,20.85
2019-04-03T14:46:02.170Z,20.82
2019-04-03T14:48:31.810Z,19.48
2019-04-03T14:51:01.906Z,20.10
2019-04-03T14:53:31.700Z,19.12
2019-04-03T14:56:01.651Z,19.05
2019-04-03T14:58:31.825Z,18.48
2019-04-03T15:01:02.464Z,18.73
2019-04-03T15:03:34.045Z,18.57
2019-04-03T15:06:03.749Z,17.87
2019-04-03T15:08:34.627Z,18.75
2019-04-03T15:11:04.722Z,17.05
2019-04-03T15:13:34.427Z,16.45
2019-04-03T15:16:04.553Z,15.83
2019-04-03T15:18:34.513Z,16.57
2019-04-03T15:21:04.715Z,15.50
2019-04-03T15:23:38.335Z,15.30
2019-04-03T15:26:05.841Z,15.60
2019-04-03T15:28:35.477Z,15.53
2019-04-03T15:31:05.415Z,16.65
2019-04-03T15:33:35.256Z,18.35
2019-04-03T15:36:04.978Z,18.75
2019-04-03T15:38:35.076Z,18.77
2019-04-03T15:41:06.063Z,17.62
2019-04-03T15:43:35.988Z,19.02
2019-04-03T15:46:05.779Z,18.57
2019-04-03T15:48:35.605Z,17.52
2019-04-03T15:51:06.252Z,18.00
2019-04-03T15:53:37.224Z,18.87
2019-04-03T15:56:06.951Z,18.98
2019-04-03T15:58:36.691Z,18.42
2019-04-03T16:01:08.350Z,21.30
2019-04-03T16:03:37.947Z,20.65
2019-04-03T16:06:07.713Z,19.30
2019-04-03T16:08:37.374Z,19.75
2019-04-03T16:11:07.155Z,21.00
2019-04-03T16:13:36.902Z,21.75
2019-04-03T16:16:06.588Z,24.80
2019-04-03T16:18:38.552Z,28.07
2019-04-03T16:21:07.624Z,22.77
2019-04-03T16:23:38.191Z,22.67
2019-04-03T16:26:08.835Z,25.20
2019-04-03T16:28:38.747Z,28.35
2019-04-03T16:31:08.467Z,28.07
2019-04-03T16:33:38.166Z,21.27
2019-04-03T16:36:08.088Z,22.85
2019-04-03T16:38:38.228Z,22.73
2019-04-03T16:41:10.134Z,23.07
2019-04-03T16:43:39.444Z,21.70
2019-04-03T16:46:11.370Z,21.70
2019-04-03T16:48:40.471Z,21.90
2019-04-03T16:51:10.133Z,22.13
2019-04-03T16:53:40.181Z,22.10
2019-04-03T16:56:09.959Z,22.07
2019-04-03T16:58:39.662Z,22.05
2019-04-03T17:01:12.856Z,27.00
2019-04-03T17:03:41.028Z,29.87
2019-04-03T17:06:13.678Z,24.25
2019-04-03T17:08:43.644Z,22.22
2019-04-03T17:11:13.398Z,23.42
2019-04-03T17:13:43.411Z,24.85
2019-04-03T17:16:14.728Z,23.73
2019-04-03T17:18:47.137Z,22.77
2019-04-03T17:21:16.426Z,22.45
2019-04-03T17:23:46.813Z,23.87
2019-04-03T17:26:17.547Z,23.27
2019-04-03T17:28:47.287Z,22.73
2019-04-03T17:31:17.099Z,23.02
2019-04-03T17:33:46.759Z,23.57
2019-04-03T17:36:17.695Z,22.07
2019-04-03T17:38:48.486Z,23.65
2019-04-03T17:41:18.364Z,21.90
2019-04-03T17:43:48.040Z,23.87
2019-04-03T17:46:18.221Z,22.58
2019-04-03T17:48:48.084Z,24.07
2019-04-03T17:51:17.836Z,22.95
2019-04-03T17:53:47.480Z,22.27
2019-04-03T17:56:17.142Z,23.35
2019-04-03T17:58:47.884Z,22.30
2019-04-03T18:01:20.595Z,24.47
2019-04-03T18:03:50.512Z,22.77
2019-04-03T18:06:20.289Z,22.42
2019-04-03T18:08:50.015Z,21.93
2019-04-03T18:11:20.802Z,21.93
2019-04-03T18:13:50.528Z,23.32
2019-04-03T18:16:20.280Z,22.70
2019-04-03T18:18:50.178Z,22.52
2019-04-03T18:21:19.991Z,22.32
2019-04-03T18:23:52.540Z,20.62
2019-04-03T18:26:21.070Z,21.70
2019-04-03T18:28:51.096Z,22.10
2019-04-03T18:31:21.160Z,21.90
2019-04-03T18:33:51.020Z,22.42
2019-04-03T18:36:20.709Z,21.40
2019-04-03T18:38:50.351Z,24.00
2019-04-03T18:41:20.023Z,21.48
2019-04-03T18:43:49.759Z,22.60
2019-04-03T18:46:31.570Z,22.10
2019-04-03T18:48:54.551Z,23.22
2019-04-03T18:51:22.403Z,22.93
2019-04-03T18:53:52.039Z,23.12
2019-04-03T18:56:21.709Z,22.65
2019-04-03T18:58:53.047Z,21.60
2019-04-03T19:01:22.772Z,22.60
2019-04-03T19:03:52.411Z,22.95
2019-04-03T19:06:22.068Z,23.38
2019-04-03T19:08:52.007Z,22.90
2019-04-03T19:11:21.907Z,22.90
2019-04-03T19:13:51.689Z,22.93
2019-04-03T19:16:29.446Z,22.82
2019-04-03T19:18:53.914Z,23.20
2019-04-03T19:21:25.594Z,23.32
2019-04-03T19:23:56.233Z,23.60
2019-04-03T19:26:25.983Z,24.57
2019-04-03T19:28:55.636Z,22.57
2019-04-03T19:31:26.004Z,22.70
2019-04-03T19:33:55.895Z,22.47
2019-04-03T19:36:25.839Z,23.40
2019-04-03T19:38:55.743Z,23.07
2019-04-03T19:41:25.496Z,23.63
2019-04-03T19:43:55.340Z,24.63
2019-04-03T19:46:25.146Z,23.90
2019-04-03T19:48:56.642Z,23.45
2019-04-03T19:51:26.306Z,22.87
2019-04-03T19:53:59.382Z,24.55
2019-04-03T19:56:27.687Z,25.03
2019-04-03T19:58:59.310Z,24.53
2019-04-03T20:01:28.900Z,24.35
2019-04-03T20:03:58.681Z,23.80
2019-04-03T20:06:28.491Z,24.85
2019-04-03T20:09:00.921Z,24.00
2019-04-03T20:11:34.159Z,25.00
2019-04-03T20:14:04.164Z,25.03
2019-04-03T20:16:35.159Z,23.55
2019-04-03T20:19:04.896Z,23.97
2019-04-03T20:21:35.894Z,24.87
2019-04-03T20:24:06.170Z,24.83
2019-04-03T20:26:36.012Z,24.83
2019-04-03T20:29:05.762Z,24.20
2019-04-03T20:31:35.736Z,26.43
2019-04-03T20:34:06.032Z,25.40
2019-04-03T20:36:35.756Z,25.90
2019-04-03T20:39:08.063Z,23.90
2019-04-03T20:41:38.010Z,26.90
2019-04-03T20:44:07.796Z,25.48
2019-04-03T20:46:37.769Z,27.13
2019-04-03T20:49:07.640Z,25.63
2019-04-03T20:51:38.026Z,25.40
2019-04-03T20:54:11.627Z,27.33
2019-04-03T20:56:40.685Z,28.60
2019-04-03T20:59:11.979Z,26.63
2019-04-03T21:01:42.240Z,28.67
2019-04-03T21:04:12.990Z,27.73
2019-04-03T21:06:43.839Z,29.47
2019-04-03T21:09:13.740Z,28.43
2019-04-03T21:11:43.524Z,28.03
2019-04-03T21:14:13.417Z,30.03
2019-04-03T21:16:43.341Z,30.03
2019-04-03T21:19:12.999Z,29.27
2019-04-03T21:21:42.618Z,28.80
2019-04-03T21:24:12.315Z,29.27
2019-04-03T21:26:42.004Z,29.37
2019-04-03T21:29:11.763Z,30.63
2019-04-03T21:31:41.426Z,28.40
2019-04-03T21:34:11.223Z,29.03
2019-04-03T21:36:40.964Z,28.03
2019-04-03T21:39:10.982Z,27.50
2019-04-03T21:41:42.100Z,28.70
2019-04-03T21:44:11.832Z,27.93
2019-04-03T21:46:41.620Z,29.10
2019-04-03T21:49:11.348Z,27.20
2019-04-03T21:51:41.195Z,27.57
2019-04-03T21:54:10.850Z,28.23
2019-04-03T21:56:40.927Z,28.17
2019-04-03T21:59:10.928Z,28.23
2019-04-03T22:01:41.245Z,28.47
2019-04-03T22:04:11.031Z,27.27
2019-04-03T22:06:40.757Z,28.43
2019-04-03T22:09:12.635Z,28.43
2019-04-03T22:11:42.600Z,26.70
2019-04-03T22:14:12.424Z,27.23
2019-04-03T22:16:42.235Z,26.07
2019-04-03T22:19:12.047Z,26.70
2019-04-03T22:21:41.948Z,27.03
2019-04-03T22:24:11.785Z,26.77
2019-04-03T22:26:41.653Z,26.93
2019-04-03T22:29:11.449Z,26.73
2019-04-03T22:31:41.247Z,27.00
2019-04-03T22:34:11.057Z,27.20
2019-04-03T22:36:40.950Z,26.27
2019-04-03T22:39:13.581Z,25.87
2019-04-03T22:41:42.903Z,25.60
2019-04-03T22:44:13.219Z,26.17
2019-04-03T22:46:42.957Z,25.55
2019-04-03T22:49:12.749Z,25.57
2019-04-03T22:51:42.815Z,25.37
2019-04-03T22:54:13.225Z,27.07
2019-04-03T22:56:43.054Z,25.67
2019-04-03T22:59:12.837Z,26.20
2019-04-03T23:01:43.698Z,26.03
2019-04-03T23:04:13.455Z,24.57
2019-04-03T23:06:43.294Z,25.03
2019-04-03T23:09:13.233Z,24.50
2019-04-03T23:11:43.078Z,25.03
2019-04-03T23:14:12.886Z,25.90
2019-04-03T23:16:43.675Z,24.20
2019-04-03T23:19:13.503Z,24.47
2019-04-03T23:21:43.407Z,24.00
2019-04-03T23:24:13.297Z,24.50
2019-04-03T23:26:43.165Z,24.10
2019-04-03T23:29:13.059Z,24.47
2019-04-03T23:31:44.650Z,25.57
2019-04-03T23:34:14.387Z,24.17
2019-04-03T23:36:44.417Z,23.43
2019-04-03T23:39:14.299Z,25.60
2019-04-03T23:41:44.047Z,24.57
2019-04-03T23:44:13.815Z,24.10
2019-04-03T23:46:45.633Z,25.25
2019-04-03T23:49:15.915Z,23.73
2019-04-03T23:51:45.816Z,24.63
2019-04-03T23:54:15.621Z,23.75
2019-04-03T23:56:45.435Z,23.23
2019-04-03T23:59:15.260Z,22.07
